Bradenton, FL (34202)

11:26 PM EDT on August 21, 2014 (GMT -0400)
SMR / Shop Grove | Change Station
CLOSE
Current Station
Personal Weather Station
Location: Brandenton, FL
Elevation: 46 ft
Nearby Weather Stations

Elev 46 ft 27.46 °N, 82.39 °W | Updated 14 seconds ago

Mostly Cloudy
Mostly Cloudy
74.7 °F
Feels Like 73 °F
N
1.0
Wind Variable Wind from ESE
Gusts 14.0 mph

Today
High -- | Low -- °F
--% Chance of Precip.
Yesterday
High -- | Low -- °F
Precip. -- in
7:03 AM 8:01 PM
Waning Crescent, 10% visible
Pressure 30.10 in
Visibility 10.0 miles
Clouds Mostly Cloudy 7000 ft
Mostly Cloudy 9000 ft
Heat Index 73 °F
Dew Point 73 °F
Humidity 95%
Rainfall 0.92 in
Snow Depth Not available.
UV 0.0 out of 12
Pollen 4.50 out of 12
Air Quality Not available.
Flu Activity Not available.
METAR KSRQ 220253Z AUTO 09003KT 10SM BKN070 BKN090 27/24 A3010 RMK AO2 SLP191 60000 T02720239 53007 $

More Conditions Fewer Conditions

Pressure 30.10 in
Visibility 10.0 miles
Clouds Mostly Cloudy 7000 ft
Mostly Cloudy 9000 ft
Heat Index 73 °F
Dew Point 73 °F
Humidity 95%
Rainfall 0.92 in
Snow Depth Not available.
UV 0.0 out of 12
Pollen 4.50 out of 12
Air Quality Not available.
Flu Activity Not available.
METAR KSRQ 220253Z AUTO 09003KT 10SM BKN070 BKN090 27/24 A3010 RMK AO2 SLP191 60000 T02720239 53007 $

More Conditions Fewer Conditions

10-Day Weather Forecast

Almanac

Astronomy

Aug. 21, 2014 Rise Set
Actual Time 7:03 AM EDT 8:01 PM EDT
Civil Twilight 6:39 AM EDT 8:25 PM EDT
Nautical Twilight 6:10 AM EDT 8:54 PM EDT
Astronomical Twilight 5:41 AM EDT 9:23 PM EDT
Moon 3:41 AM EDT (8/21) 5:22 PM EDT (8/21)
Length of Visible Light 13h 46m
Length of Day
12h 58m
Tomorrow will be 1m 29s shorter.
Waning Crescent, 10% of the Moon is Illuminated
Today
Waning Crescent
Aug 25
New
Sep 2
First Quarter
Sep 8
Full
Sep 15
Last Quarter

Today's Extremes

State Highs State Lows

Community

WunderPhotos

Upload Photos

1,746,122 photos uploaded!

Nearby

Snow Depth

Station Depth Elevation
No new snow has been reported.

Earthquake Activity

City Distance Mag. Time & Date
No recent earthquake activity has been reported nearby.
Minimum magnitude displayed is 2.5.

Coastal Water Temperatures

Place Temperature
St Petersburg, FL 91.9 °F
Old Port Tampa, FL 90.0 °F
McKay Bay Entrance, FL 89.1 °F

Nearby Weather Stations